sensor_id;sensor_type;location;lat;lon;timestamp;P1;durP1;ratioP1;P2;durP2;ratioP2
27025;SDS011;14565;48.626;8.978;2024-01-06T00:01:43;13.25;;;4.95;;
27025;SDS011;14565;48.626;8.978;2024-01-06T00:04:10;8.30;;;4.07;;
27025;SDS011;14565;48.626;8.978;2024-01-06T00:06:37;8.00;;;4.28;;
27025;SDS011;14565;48.626;8.978;2024-01-06T00:09:03;9.10;;;3.60;;
27025;SDS011;14565;48.626;8.978;2024-01-06T00:11:29;8.90;;;3.50;;
27025;SDS011;14565;48.626;8.978;2024-01-06T00:13:55;7.28;;;3.33;;
27025;SDS011;14565;48.626;8.978;2024-01-06T00:16:21;6.18;;;3.05;;
27025;SDS011;14565;48.626;8.978;2024-01-06T00:18:47;6.80;;;3.08;;
27025;SDS011;14565;48.626;8.978;2024-01-06T00:21:13;6.55;;;2.88;;
27025;SDS011;14565;48.626;8.978;2024-01-06T00:23:41;8.23;;;2.90;;
27025;SDS011;14565;48.626;8.978;2024-01-06T00:26:07;9.43;;;3.30;;
27025;SDS011;14565;48.626;8.978;2024-01-06T00:28:38;6.65;;;3.10;;
27025;SDS011;14565;48.626;8.978;2024-01-06T00:31:04;11.63;;;3.28;;
27025;SDS011;14565;48.626;8.978;2024-01-06T00:33:31;6.45;;;2.60;;
27025;SDS011;14565;48.626;8.978;2024-01-06T00:35:57;5.88;;;2.90;;
27025;SDS011;14565;48.626;8.978;2024-01-06T00:38:22;5.40;;;2.65;;
27025;SDS011;14565;48.626;8.978;2024-01-06T00:40:48;7.50;;;3.30;;
27025;SDS011;14565;48.626;8.978;2024-01-06T00:43:14;10.48;;;5.30;;
27025;SDS011;14565;48.626;8.978;2024-01-06T00:45:40;6.60;;;3.88;;
27025;SDS011;14565;48.626;8.978;2024-01-06T00:48:06;7.53;;;3.65;;
27025;SDS011;14565;48.626;8.978;2024-01-06T00:50:32;8.80;;;3.33;;
27025;SDS011;14565;48.626;8.978;2024-01-06T00:52:57;6.88;;;3.25;;
27025;SDS011;14565;48.626;8.978;2024-01-06T00:55:23;7.47;;;3.30;;
27025;SDS011;14565;48.626;8.978;2024-01-06T00:57:50;6.57;;;2.78;;
27025;SDS011;14565;48.626;8.978;2024-01-06T01:00:16;5.65;;;2.58;;
27025;SDS011;14565;48.626;8.978;2024-01-06T01:02:42;11.90;;;3.80;;
27025;SDS011;14565;48.626;8.978;2024-01-06T01:05:08;9.07;;;3.85;;
27025;SDS011;14565;48.626;8.978;2024-01-06T01:07:34;13.23;;;4.95;;
27025;SDS011;14565;48.626;8.978;2024-01-06T01:10:00;5.30;;;3.03;;
27025;SDS011;14565;48.626;8.978;2024-01-06T01:12:27;9.40;;;3.72;;
27025;SDS011;14565;48.626;8.978;2024-01-06T01:14:52;20.60;;;10.00;;
27025;SDS011;14565;48.626;8.978;2024-01-06T01:17:18;17.40;;;7.70;;
27025;SDS011;14565;48.626;8.978;2024-01-06T01:19:44;9.38;;;4.75;;
27025;SDS011;14565;48.626;8.978;2024-01-06T01:22:10;4.00;;;2.65;;
27025;SDS011;14565;48.626;8.978;2024-01-06T01:24:36;5.93;;;2.13;;
27025;SDS011;14565;48.626;8.978;2024-01-06T01:27:02;6.10;;;2.30;;
27025;SDS011;14565;48.626;8.978;2024-01-06T01:29:28;3.60;;;1.85;;
27025;SDS011;14565;48.626;8.978;2024-01-06T01:31:54;4.53;;;2.03;;
27025;SDS011;14565;48.626;8.978;2024-01-06T01:34:20;6.93;;;2.10;;
27025;SDS011;14565;48.626;8.978;2024-01-06T01:36:45;4.65;;;2.22;;
27025;SDS011;14565;48.626;8.978;2024-01-06T01:39:11;6.90;;;2.22;;
27025;SDS011;14565;48.626;8.978;2024-01-06T01:41:37;8.50;;;1.80;;
27025;SDS011;14565;48.626;8.978;2024-01-06T01:44:04;11.07;;;2.28;;
27025;SDS011;14565;48.626;8.978;2024-01-06T01:46:30;8.77;;;2.20;;
27025;SDS011;14565;48.626;8.978;2024-01-06T01:48:56;4.35;;;1.92;;
27025;SDS011;14565;48.626;8.978;2024-01-06T01:51:24;3.92;;;1.77;;
27025;SDS011;14565;48.626;8.978;2024-01-06T01:53:53;3.22;;;1.70;;
27025;SDS011;14565;48.626;8.978;2024-01-06T01:56:19;8.45;;;1.98;;
27025;SDS011;14565;48.626;8.978;2024-01-06T01:58:46;5.43;;;1.90;;
27025;SDS011;14565;48.626;8.978;2024-01-06T02:01:12;6.28;;;1.90;;
27025;SDS011;14565;48.626;8.978;2024-01-06T02:03:40;7.78;;;2.00;;
27025;SDS011;14565;48.626;8.978;2024-01-06T02:06:08;5.53;;;1.80;;
27025;SDS011;14565;48.626;8.978;2024-01-06T02:08:34;3.25;;;1.50;;
27025;SDS011;14565;48.626;8.978;2024-01-06T02:11:00;4.70;;;1.58;;
27025;SDS011;14565;48.626;8.978;2024-01-06T02:13:32;5.50;;;2.17;;
27025;SDS011;14565;48.626;8.978;2024-01-06T02:16:00;3.90;;;1.80;;
27025;SDS011;14565;48.626;8.978;2024-01-06T02:18:26;3.53;;;1.70;;
27025;SDS011;14565;48.626;8.978;2024-01-06T02:20:52;6.28;;;2.00;;
27025;SDS011;14565;48.626;8.978;2024-01-06T02:23:22;5.32;;;1.70;;
27025;SDS011;14565;48.626;8.978;2024-01-06T02:25:49;10.35;;;2.38;;
27025;SDS011;14565;48.626;8.978;2024-01-06T02:28:14;2.35;;;1.55;;
27025;SDS011;14565;48.626;8.978;2024-01-06T02:30:40;9.20;;;1.90;;
27025;SDS011;14565;48.626;8.978;2024-01-06T02:33:06;4.57;;;1.65;;
27025;SDS011;14565;48.626;8.978;2024-01-06T02:35:33;4.88;;;1.33;;
27025;SDS011;14565;48.626;8.978;2024-01-06T02:37:59;5.13;;;1.60;;
27025;SDS011;14565;48.626;8.978;2024-01-06T02:40:25;4.47;;;1.77;;
27025;SDS011;14565;48.626;8.978;2024-01-06T02:42:51;3.92;;;1.40;;
27025;SDS011;14565;48.626;8.978;2024-01-06T02:45:17;6.63;;;1.88;;
27025;SDS011;14565;48.626;8.978;2024-01-06T02:47:43;5.05;;;1.85;;
27025;SDS011;14565;48.626;8.978;2024-01-06T02:50:08;4.85;;;1.60;;
27025;SDS011;14565;48.626;8.978;2024-01-06T02:52:34;7.05;;;1.63;;
27025;SDS011;14565;48.626;8.978;2024-01-06T02:55:00;3.80;;;2.00;;
27025;SDS011;14565;48.626;8.978;2024-01-06T02:57:29;4.80;;;2.00;;
27025;SDS011;14565;48.626;8.978;2024-01-06T02:59:55;5.68;;;2.05;;
27025;SDS011;14565;48.626;8.978;2024-01-06T03:02:21;6.22;;;1.80;;
27025;SDS011;14565;48.626;8.978;2024-01-06T03:04:47;2.67;;;1.63;;
27025;SDS011;14565;48.626;8.978;2024-01-06T03:07:14;6.43;;;1.77;;
27025;SDS011;14565;48.626;8.978;2024-01-06T03:09:40;5.75;;;1.92;;
27025;SDS011;14565;48.626;8.978;2024-01-06T03:12:06;7.97;;;2.03;;
27025;SDS011;14565;48.626;8.978;2024-01-06T03:14:34;3.55;;;1.65;;
27025;SDS011;14565;48.626;8.978;2024-01-06T03:17:00;7.80;;;2.10;;
27025;SDS011;14565;48.626;8.978;2024-01-06T03:19:28;7.97;;;1.75;;
27025;SDS011;14565;48.626;8.978;2024-01-06T03:21:54;3.85;;;1.77;;
27025;SDS011;14565;48.626;8.978;2024-01-06T03:24:20;5.38;;;1.85;;
27025;SDS011;14565;48.626;8.978;2024-01-06T03:26:46;3.33;;;1.67;;
27025;SDS011;14565;48.626;8.978;2024-01-06T03:29:12;4.30;;;1.63;;
27025;SDS011;14565;48.626;8.978;2024-01-06T03:31:41;1.90;;;1.50;;
27025;SDS011;14565;48.626;8.978;2024-01-06T03:34:07;4.35;;;1.48;;
27025;SDS011;14565;48.626;8.978;2024-01-06T03:36:34;3.53;;;1.55;;
27025;SDS011;14565;48.626;8.978;2024-01-06T03:38:59;7.38;;;2.00;;
27025;SDS011;14565;48.626;8.978;2024-01-06T03:41:25;8.75;;;1.60;;
27025;SDS011;14565;48.626;8.978;2024-01-06T03:43:51;5.88;;;1.58;;
27025;SDS011;14565;48.626;8.978;2024-01-06T03:46:16;4.95;;;1.85;;
27025;SDS011;14565;48.626;8.978;2024-01-06T03:48:42;3.33;;;1.60;;
27025;SDS011;14565;48.626;8.978;2024-01-06T03:51:09;4.45;;;1.70;;
27025;SDS011;14565;48.626;8.978;2024-01-06T03:53:35;3.83;;;1.77;;
27025;SDS011;14565;48.626;8.978;2024-01-06T03:56:02;5.20;;;1.80;;
27025;SDS011;14565;48.626;8.978;2024-01-06T03:58:29;3.90;;;1.70;;
27025;SDS011;14565;48.626;8.978;2024-01-06T04:00:54;6.72;;;1.83;;
27025;SDS011;14565;48.626;8.978;2024-01-06T04:03:21;3.20;;;1.85;;
27025;SDS011;14565;48.626;8.978;2024-01-06T04:05:46;6.72;;;2.13;;
27025;SDS011;14565;48.626;8.978;2024-01-06T04:08:12;4.13;;;1.67;;
27025;SDS011;14565;48.626;8.978;2024-01-06T04:10:38;5.68;;;1.63;;
27025;SDS011;14565;48.626;8.978;2024-01-06T04:13:06;4.63;;;1.70;;
27025;SDS011;14565;48.626;8.978;2024-01-06T04:15:38;3.70;;;1.60;;
27025;SDS011;14565;48.626;8.978;2024-01-06T04:18:04;6.82;;;1.70;;
27025;SDS011;14565;48.626;8.978;2024-01-06T04:20:31;7.32;;;2.13;;
27025;SDS011;14565;48.626;8.978;2024-01-06T04:22:58;4.78;;;1.95;;
27025;SDS011;14565;48.626;8.978;2024-01-06T04:25:24;7.15;;;1.63;;
27025;SDS011;14565;48.626;8.978;2024-01-06T04:27:50;8.65;;;1.70;;
27025;SDS011;14565;48.626;8.978;2024-01-06T04:30:16;6.90;;;1.52;;
27025;SDS011;14565;48.626;8.978;2024-01-06T04:32:43;5.65;;;1.60;;
27025;SDS011;14565;48.626;8.978;2024-01-06T04:35:10;2.03;;;1.30;;
27025;SDS011;14565;48.626;8.978;2024-01-06T04:37:35;4.35;;;1.65;;
27025;SDS011;14565;48.626;8.978;2024-01-06T04:40:01;4.20;;;1.70;;
27025;SDS011;14565;48.626;8.978;2024-01-06T04:44:55;8.25;;;3.17;;
27025;SDS011;14565;48.626;8.978;2024-01-06T04:47:21;3.55;;;2.08;;
27025;SDS011;14565;48.626;8.978;2024-01-06T04:49:46;5.15;;;2.20;;
27025;SDS011;14565;48.626;8.978;2024-01-06T04:52:12;3.90;;;1.63;;
27025;SDS011;14565;48.626;8.978;2024-01-06T04:54:38;4.25;;;1.20;;
27025;SDS011;14565;48.626;8.978;2024-01-06T04:57:03;7.50;;;1.40;;
27025;SDS011;14565;48.626;8.978;2024-01-06T04:59:30;3.60;;;1.55;;
27025;SDS011;14565;48.626;8.978;2024-01-06T05:01:57;4.13;;;1.50;;
27025;SDS011;14565;48.626;8.978;2024-01-06T05:04:23;9.47;;;1.83;;
27025;SDS011;14565;48.626;8.978;2024-01-06T05:06:50;4.88;;;1.58;;
27025;SDS011;14565;48.626;8.978;2024-01-06T05:09:17;5.80;;;1.60;;
27025;SDS011;14565;48.626;8.978;2024-01-06T05:11:43;3.95;;;1.20;;
27025;SDS011;14565;48.626;8.978;2024-01-06T05:14:09;3.30;;;0.95;;
27025;SDS011;14565;48.626;8.978;2024-01-06T05:16:35;3.67;;;1.20;;
27025;SDS011;14565;48.626;8.978;2024-01-06T05:19:01;4.53;;;1.42;;
27025;SDS011;14565;48.626;8.978;2024-01-06T05:21:27;4.38;;;1.30;;
27025;SDS011;14565;48.626;8.978;2024-01-06T05:23:53;5.60;;;1.30;;
27025;SDS011;14565;48.626;8.978;2024-01-06T05:26:18;6.72;;;1.33;;
27025;SDS011;14565;48.626;8.978;2024-01-06T05:28:44;2.45;;;0.98;;
27025;SDS011;14565;48.626;8.978;2024-01-06T05:31:10;11.00;;;1.40;;
27025;SDS011;14565;48.626;8.978;2024-01-06T05:33:35;7.22;;;1.27;;
27025;SDS011;14565;48.626;8.978;2024-01-06T05:36:01;3.47;;;1.10;;
27025;SDS011;14565;48.626;8.978;2024-01-06T05:38:27;6.80;;;1.27;;
27025;SDS011;14565;48.626;8.978;2024-01-06T05:40:52;5.35;;;1.30;;
27025;SDS011;14565;48.626;8.978;2024-01-06T05:43:18;9.68;;;1.73;;
27025;SDS011;14565;48.626;8.978;2024-01-06T05:45:44;5.55;;;1.35;;
27025;SDS011;14565;48.626;8.978;2024-01-06T05:48:10;6.03;;;1.10;;
27025;SDS011;14565;48.626;8.978;2024-01-06T05:50:40;6.85;;;1.30;;
27025;SDS011;14565;48.626;8.978;2024-01-06T05:53:06;4.35;;;1.30;;
27025;SDS011;14565;48.626;8.978;2024-01-06T05:55:32;2.58;;;1.20;;
27025;SDS011;14565;48.626;8.978;2024-01-06T05:57:58;5.68;;;1.13;;
27025;SDS011;14565;48.626;8.978;2024-01-06T06:00:25;4.57;;;0.82;;
27025;SDS011;14565;48.626;8.978;2024-01-06T06:02:51;5.40;;;1.17;;
27025;SDS011;14565;48.626;8.978;2024-01-06T06:05:17;4.45;;;1.13;;
27025;SDS011;14565;48.626;8.978;2024-01-06T06:07:43;1.65;;;0.90;;
27025;SDS011;14565;48.626;8.978;2024-01-06T06:10:09;3.78;;;1.30;;
27025;SDS011;14565;48.626;8.978;2024-01-06T06:12:36;5.03;;;1.10;;
27025;SDS011;14565;48.626;8.978;2024-01-06T06:15:03;2.88;;;1.20;;
27025;SDS011;14565;48.626;8.978;2024-01-06T06:17:30;2.85;;;0.88;;
27025;SDS011;14565;48.626;8.978;2024-01-06T06:19:56;7.20;;;1.33;;
27025;SDS011;14565;48.626;8.978;2024-01-06T06:22:24;5.05;;;1.60;;
27025;SDS011;14565;48.626;8.978;2024-01-06T06:25:01;6.65;;;1.02;;
27025;SDS011;14565;48.626;8.978;2024-01-06T06:27:27;3.72;;;0.80;;
27025;SDS011;14565;48.626;8.978;2024-01-06T06:29:53;5.20;;;1.20;;
27025;SDS011;14565;48.626;8.978;2024-01-06T06:32:19;5.88;;;2.00;;
27025;SDS011;14565;48.626;8.978;2024-01-06T06:34:46;4.80;;;1.58;;
27025;SDS011;14565;48.626;8.978;2024-01-06T06:37:11;7.97;;;1.38;;
27025;SDS011;14565;48.626;8.978;2024-01-06T06:39:38;6.18;;;1.35;;
27025;SDS011;14565;48.626;8.978;2024-01-06T06:42:03;5.80;;;1.20;;
27025;SDS011;14565;48.626;8.978;2024-01-06T06:44:29;7.53;;;1.05;;
27025;SDS011;14565;48.626;8.978;2024-01-06T06:46:55;3.28;;;1.35;;
27025;SDS011;14565;48.626;8.978;2024-01-06T06:49:21;3.72;;;1.10;;
27025;SDS011;14565;48.626;8.978;2024-01-06T06:51:47;3.60;;;1.10;;
27025;SDS011;14565;48.626;8.978;2024-01-06T06:54:16;5.43;;;1.15;;
27025;SDS011;14565;48.626;8.978;2024-01-06T06:56:42;5.53;;;1.17;;
27025;SDS011;14565;48.626;8.978;2024-01-06T06:59:08;3.90;;;1.08;;
27025;SDS011;14565;48.626;8.978;2024-01-06T07:01:34;3.35;;;1.10;;
27025;SDS011;14565;48.626;8.978;2024-01-06T07:04:00;4.03;;;1.35;;
27025;SDS011;14565;48.626;8.978;2024-01-06T07:06:27;4.38;;;1.25;;
27025;SDS011;14565;48.626;8.978;2024-01-06T07:08:53;9.05;;;2.75;;
27025;SDS011;14565;48.626;8.978;2024-01-06T07:11:19;4.93;;;1.17;;
27025;SDS011;14565;48.626;8.978;2024-01-06T07:13:45;4.38;;;1.55;;
27025;SDS011;14565;48.626;8.978;2024-01-06T07:16:12;6.28;;;1.15;;
27025;SDS011;14565;48.626;8.978;2024-01-06T07:18:38;6.53;;;1.20;;
27025;SDS011;14565;48.626;8.978;2024-01-06T07:21:06;2.28;;;0.98;;
27025;SDS011;14565;48.626;8.978;2024-01-06T07:23:32;5.82;;;1.08;;
27025;SDS011;14565;48.626;8.978;2024-01-06T07:25:58;2.45;;;1.15;;
27025;SDS011;14565;48.626;8.978;2024-01-06T07:28:24;4.15;;;1.77;;
27025;SDS011;14565;48.626;8.978;2024-01-06T07:30:51;5.43;;;2.17;;
27025;SDS011;14565;48.626;8.978;2024-01-06T07:33:16;3.60;;;1.33;;
27025;SDS011;14565;48.626;8.978;2024-01-06T07:35:42;4.78;;;1.40;;
27025;SDS011;14565;48.626;8.978;2024-01-06T07:38:11;3.20;;;1.42;;
27025;SDS011;14565;48.626;8.978;2024-01-06T07:40:37;6.40;;;2.15;;
27025;SDS011;14565;48.626;8.978;2024-01-06T07:43:03;2.60;;;1.70;;
27025;SDS011;14565;48.626;8.978;2024-01-06T07:45:29;4.15;;;1.98;;
27025;SDS011;14565;48.626;8.978;2024-01-06T07:47:55;3.85;;;1.88;;
27025;SDS011;14565;48.626;8.978;2024-01-06T07:50:21;4.32;;;2.67;;
27025;SDS011;14565;48.626;8.978;2024-01-06T07:52:47;3.97;;;2.05;;
27025;SDS011;14565;48.626;8.978;2024-01-06T07:55:12;5.35;;;2.33;;
27025;SDS011;14565;48.626;8.978;2024-01-06T07:57:38;5.00;;;2.22;;
27025;SDS011;14565;48.626;8.978;2024-01-06T08:00:04;6.22;;;2.53;;
27025;SDS011;14565;48.626;8.978;2024-01-06T08:02:30;7.10;;;2.17;;
27025;SDS011;14565;48.626;8.978;2024-01-06T08:04:56;4.82;;;1.92;;
27025;SDS011;14565;48.626;8.978;2024-01-06T08:07:22;5.90;;;1.50;;
27025;SDS011;14565;48.626;8.978;2024-01-06T08:09:48;3.90;;;1.42;;
27025;SDS011;14565;48.626;8.978;2024-01-06T08:12:14;7.07;;;2.28;;
27025;SDS011;14565;48.626;8.978;2024-01-06T08:14:40;2.55;;;1.38;;
27025;SDS011;14565;48.626;8.978;2024-01-06T08:17:06;4.38;;;1.67;;
27025;SDS011;14565;48.626;8.978;2024-01-06T08:19:32;3.00;;;1.77;;
27025;SDS011;14565;48.626;8.978;2024-01-06T08:21:58;4.13;;;1.90;;
27025;SDS011;14565;48.626;8.978;2024-01-06T08:24:24;6.20;;;2.42;;
27025;SDS011;14565;48.626;8.978;2024-01-06T08:26:50;5.65;;;2.40;;
27025;SDS011;14565;48.626;8.978;2024-01-06T08:29:16;5.07;;;1.85;;
27025;SDS011;14565;48.626;8.978;2024-01-06T08:31:44;4.40;;;2.20;;
27025;SDS011;14565;48.626;8.978;2024-01-06T08:34:10;4.63;;;1.90;;
27025;SDS011;14565;48.626;8.978;2024-01-06T08:36:36;2.53;;;1.40;;
27025;SDS011;14565;48.626;8.978;2024-01-06T08:39:02;4.85;;;1.30;;
27025;SDS011;14565;48.626;8.978;2024-01-06T08:41:27;3.03;;;1.30;;
27025;SDS011;14565;48.626;8.978;2024-01-06T08:43:53;3.53;;;1.67;;
27025;SDS011;14565;48.626;8.978;2024-01-06T08:46:19;2.53;;;1.48;;
27025;SDS011;14565;48.626;8.978;2024-01-06T08:48:45;10.15;;;4.10;;
27025;SDS011;14565;48.626;8.978;2024-01-06T08:51:11;12.65;;;6.15;;
27025;SDS011;14565;48.626;8.978;2024-01-06T08:53:36;3.65;;;1.95;;
27025;SDS011;14565;48.626;8.978;2024-01-06T08:56:02;5.60;;;1.45;;
27025;SDS011;14565;48.626;8.978;2024-01-06T08:58:28;6.65;;;2.33;;
27025;SDS011;14565;48.626;8.978;2024-01-06T09:00:53;3.95;;;1.50;;
27025;SDS011;14565;48.626;8.978;2024-01-06T09:03:19;3.30;;;1.65;;
27025;SDS011;14565;48.626;8.978;2024-01-06T09:05:55;2.38;;;1.20;;
27025;SDS011;14565;48.626;8.978;2024-01-06T09:08:22;4.93;;;1.70;;
27025;SDS011;14565;48.626;8.978;2024-01-06T09:10:49;2.08;;;1.02;;
27025;SDS011;14565;48.626;8.978;2024-01-06T09:13:16;1.77;;;1.00;;
27025;SDS011;14565;48.626;8.978;2024-01-06T09:15:43;2.40;;;1.10;;
27025;SDS011;14565;48.626;8.978;2024-01-06T09:18:08;2.90;;;0.93;;
27025;SDS011;14565;48.626;8.978;2024-01-06T09:20:34;3.70;;;1.30;;
27025;SDS011;14565;48.626;8.978;2024-01-06T09:23:00;4.70;;;0.90;;
27025;SDS011;14565;48.626;8.978;2024-01-06T09:25:26;2.78;;;1.48;;
27025;SDS011;14565;48.626;8.978;2024-01-06T09:27:52;5.78;;;1.50;;
27025;SDS011;14565;48.626;8.978;2024-01-06T09:30:18;3.42;;;1.20;;
27025;SDS011;14565;48.626;8.978;2024-01-06T09:32:44;8.35;;;2.97;;
27025;SDS011;14565;48.626;8.978;2024-01-06T09:35:09;3.70;;;1.80;;
27025;SDS011;14565;48.626;8.978;2024-01-06T09:37:35;3.53;;;1.95;;
27025;SDS011;14565;48.626;8.978;2024-01-06T09:40:01;2.78;;;1.90;;
27025;SDS011;14565;48.626;8.978;2024-01-06T09:42:26;1.40;;;1.00;;
27025;SDS011;14565;48.626;8.978;2024-01-06T09:44:52;3.25;;;1.60;;
27025;SDS011;14565;48.626;8.978;2024-01-06T09:47:18;2.50;;;1.20;;
27025;SDS011;14565;48.626;8.978;2024-01-06T09:52:14;1.63;;;1.00;;
27025;SDS011;14565;48.626;8.978;2024-01-06T09:54:41;2.28;;;1.02;;
27025;SDS011;14565;48.626;8.978;2024-01-06T09:57:12;3.00;;;1.00;;
27025;SDS011;14565;48.626;8.978;2024-01-06T09:59:37;1.45;;;0.80;;
27025;SDS011;14565;48.626;8.978;2024-01-06T10:02:04;1.05;;;0.63;;
27025;SDS011;14565;48.626;8.978;2024-01-06T10:04:30;1.83;;;0.93;;
27025;SDS011;14565;48.626;8.978;2024-01-06T10:06:56;3.65;;;1.30;;
27025;SDS011;14565;48.626;8.978;2024-01-06T10:09:26;1.07;;;0.60;;
27025;SDS011;14565;48.626;8.978;2024-01-06T10:11:56;4.07;;;0.90;;
27025;SDS011;14565;48.626;8.978;2024-01-06T10:14:23;1.38;;;1.00;;
27025;SDS011;14565;48.626;8.978;2024-01-06T10:16:49;2.92;;;1.27;;
27025;SDS011;14565;48.626;8.978;2024-01-06T10:19:16;2.25;;;0.90;;
27025;SDS011;14565;48.626;8.978;2024-01-06T10:21:42;1.70;;;0.90;;
27025;SDS011;14565;48.626;8.978;2024-01-06T10:24:08;1.15;;;0.80;;
27025;SDS011;14565;48.626;8.978;2024-01-06T10:26:34;1.73;;;1.00;;
27025;SDS011;14565;48.626;8.978;2024-01-06T10:29:01;1.77;;;0.75;;
27025;SDS011;14565;48.626;8.978;2024-01-06T10:31:29;0.90;;;0.70;;
27025;SDS011;14565;48.626;8.978;2024-01-06T10:33:55;2.38;;;1.10;;
27025;SDS011;14565;48.626;8.978;2024-01-06T10:36:22;1.70;;;0.90;;
27025;SDS011;14565;48.626;8.978;2024-01-06T10:38:52;1.60;;;0.85;;
27025;SDS011;14565;48.626;8.978;2024-01-06T10:41:18;1.95;;;1.10;;
27025;SDS011;14565;48.626;8.978;2024-01-06T10:43:45;1.33;;;0.95;;
27025;SDS011;14565;48.626;8.978;2024-01-06T10:46:13;3.60;;;1.20;;
27025;SDS011;14565;48.626;8.978;2024-01-06T10:48:41;2.30;;;1.45;;
27025;SDS011;14565;48.626;8.978;2024-01-06T10:51:11;8.63;;;3.83;;
27025;SDS011;14565;48.626;8.978;2024-01-06T10:53:39;4.30;;;2.15;;
27025;SDS011;14565;48.626;8.978;2024-01-06T10:56:06;2.58;;;1.17;;
27025;SDS011;14565;48.626;8.978;2024-01-06T10:58:45;6.05;;;3.90;;
27025;SDS011;14565;48.626;8.978;2024-01-06T11:01:13;6.78;;;5.53;;
27025;SDS011;14565;48.626;8.978;2024-01-06T11:03:39;2.80;;;1.58;;
27025;SDS011;14565;48.626;8.978;2024-01-06T11:06:05;1.65;;;1.00;;
27025;SDS011;14565;48.626;8.978;2024-01-06T11:08:36;2.13;;;1.10;;
27025;SDS011;14565;48.626;8.978;2024-01-06T11:11:15;2.35;;;0.90;;
27025;SDS011;14565;48.626;8.978;2024-01-06T11:13:47;1.65;;;1.20;;
27025;SDS011;14565;48.626;8.978;2024-01-06T11:16:33;2.45;;;1.20;;
27025;SDS011;14565;48.626;8.978;2024-01-06T11:19:00;3.65;;;1.42;;
27025;SDS011;14565;48.626;8.978;2024-01-06T11:21:26;1.42;;;0.90;;
27025;SDS011;14565;48.626;8.978;2024-01-06T11:29:16;3.38;;;1.88;;
27025;SDS011;14565;48.626;8.978;2024-01-06T11:31:47;2.40;;;1.42;;
27025;SDS011;14565;48.626;8.978;2024-01-06T11:34:52;2.03;;;1.30;;
27025;SDS011;14565;48.626;8.978;2024-01-06T11:37:23;1.35;;;0.70;;
27025;SDS011;14565;48.626;8.978;2024-01-06T11:40:08;1.40;;;0.90;;
27025;SDS011;14565;48.626;8.978;2024-01-06T11:45:31;2.67;;;0.82;;
27025;SDS011;14565;48.626;8.978;2024-01-06T11:47:58;7.22;;;2.75;;
27025;SDS011;14565;48.626;8.978;2024-01-06T11:50:25;6.93;;;2.72;;
27025;SDS011;14565;48.626;8.978;2024-01-06T11:52:52;5.85;;;3.53;;
27025;SDS011;14565;48.626;8.978;2024-01-06T11:55:18;6.55;;;4.20;;
27025;SDS011;14565;48.626;8.978;2024-01-06T11:57:44;2.42;;;1.90;;
27025;SDS011;14565;48.626;8.978;2024-01-06T12:00:10;3.80;;;2.60;;
27025;SDS011;14565;48.626;8.978;2024-01-06T12:02:38;2.72;;;2.38;;
27025;SDS011;14565;48.626;8.978;2024-01-06T12:05:04;3.28;;;2.45;;
27025;SDS011;14565;48.626;8.978;2024-01-06T12:07:30;1.58;;;1.02;;
27025;SDS011;14565;48.626;8.978;2024-01-06T12:10:03;5.25;;;2.40;;
27025;SDS011;14565;48.626;8.978;2024-01-06T12:12:29;8.38;;;5.15;;
27025;SDS011;14565;48.626;8.978;2024-01-06T12:14:55;4.38;;;2.60;;
27025;SDS011;14565;48.626;8.978;2024-01-06T12:17:21;11.27;;;7.63;;
27025;SDS011;14565;48.626;8.978;2024-01-06T12:19:47;28.30;;;16.88;;
27025;SDS011;14565;48.626;8.978;2024-01-06T12:22:14;3.75;;;2.65;;
27025;SDS011;14565;48.626;8.978;2024-01-06T12:24:40;4.00;;;3.05;;
27025;SDS011;14565;48.626;8.978;2024-01-06T12:27:08;2.60;;;1.70;;
27025;SDS011;14565;48.626;8.978;2024-01-06T12:29:40;2.90;;;1.50;;
27025;SDS011;14565;48.626;8.978;2024-01-06T12:32:06;1.17;;;0.95;;
27025;SDS011;14565;48.626;8.978;2024-01-06T12:34:33;2.20;;;0.90;;
27025;SDS011;14565;48.626;8.978;2024-01-06T12:37:00;1.00;;;0.80;;
27025;SDS011;14565;48.626;8.978;2024-01-06T12:39:29;3.90;;;2.60;;
27025;SDS011;14565;48.626;8.978;2024-01-06T12:41:56;2.47;;;2.13;;
27025;SDS011;14565;48.626;8.978;2024-01-06T12:44:22;1.58;;;1.10;;
27025;SDS011;14565;48.626;8.978;2024-01-06T12:46:48;1.15;;;0.95;;
27025;SDS011;14565;48.626;8.978;2024-01-06T12:49:14;5.38;;;2.40;;
27025;SDS011;14565;48.626;8.978;2024-01-06T12:51:40;3.47;;;2.08;;
27025;SDS011;14565;48.626;8.978;2024-01-06T12:54:06;1.90;;;1.10;;
27025;SDS011;14565;48.626;8.978;2024-01-06T12:56:31;7.07;;;4.40;;
27025;SDS011;14565;48.626;8.978;2024-01-06T12:58:57;5.07;;;2.50;;
27025;SDS011;14565;48.626;8.978;2024-01-06T13:01:23;1.23;;;0.85;;
27025;SDS011;14565;48.626;8.978;2024-01-06T13:03:49;1.75;;;1.00;;
27025;SDS011;14565;48.626;8.978;2024-01-06T13:06:16;5.03;;;2.35;;
27025;SDS011;14565;48.626;8.978;2024-01-06T13:08:44;10.70;;;4.43;;
27025;SDS011;14565;48.626;8.978;2024-01-06T13:11:10;12.00;;;5.65;;
27025;SDS011;14565;48.626;8.978;2024-01-06T13:13:36;14.48;;;6.72;;
27025;SDS011;14565;48.626;8.978;2024-01-06T13:16:02;8.50;;;3.67;;
27025;SDS011;14565;48.626;8.978;2024-01-06T13:20:55;13.38;;;6.45;;
27025;SDS011;14565;48.626;8.978;2024-01-06T13:23:21;13.02;;;5.20;;
27025;SDS011;14565;48.626;8.978;2024-01-06T13:25:47;4.97;;;3.30;;
27025;SDS011;14565;48.626;8.978;2024-01-06T13:28:13;3.50;;;2.20;;
27025;SDS011;14565;48.626;8.978;2024-01-06T13:30:39;12.32;;;5.47;;
27025;SDS011;14565;48.626;8.978;2024-01-06T13:33:06;29.93;;;12.37;;
27025;SDS011;14565;48.626;8.978;2024-01-06T13:35:32;12.38;;;5.20;;
27025;SDS011;14565;48.626;8.978;2024-01-06T13:37:59;10.57;;;5.70;;
27025;SDS011;14565;48.626;8.978;2024-01-06T13:40:24;23.50;;;9.48;;
27025;SDS011;14565;48.626;8.978;2024-01-06T13:42:50;44.72;;;18.45;;
27025;SDS011;14565;48.626;8.978;2024-01-06T13:45:17;46.30;;;17.20;;
27025;SDS011;14565;48.626;8.978;2024-01-06T13:47:43;58.92;;;24.15;;
27025;SDS011;14565;48.626;8.978;2024-01-06T13:50:13;81.85;;;31.33;;
27025;SDS011;14565;48.626;8.978;2024-01-06T13:52:40;48.53;;;19.45;;
27025;SDS011;14565;48.626;8.978;2024-01-06T13:55:06;96.15;;;34.42;;
27025;SDS011;14565;48.626;8.978;2024-01-06T13:57:33;41.90;;;17.33;;
27025;SDS011;14565;48.626;8.978;2024-01-06T13:59:59;4.93;;;4.20;;
27025;SDS011;14565;48.626;8.978;2024-01-06T14:02:25;3.13;;;2.25;;
27025;SDS011;14565;48.626;8.978;2024-01-06T14:04:51;5.35;;;1.80;;
27025;SDS011;14565;48.626;8.978;2024-01-06T14:07:17;2.55;;;1.38;;
27025;SDS011;14565;48.626;8.978;2024-01-06T14:09:47;1.50;;;1.20;;
27025;SDS011;14565;48.626;8.978;2024-01-06T14:12:13;1.83;;;1.40;;
27025;SDS011;14565;48.626;8.978;2024-01-06T14:14:39;2.45;;;1.23;;
27025;SDS011;14565;48.626;8.978;2024-01-06T14:17:11;1.52;;;1.42;;
27025;SDS011;14565;48.626;8.978;2024-01-06T14:19:37;2.03;;;1.85;;
27025;SDS011;14565;48.626;8.978;2024-01-06T14:22:03;1.13;;;1.00;;
27025;SDS011;14565;48.626;8.978;2024-01-06T14:24:32;1.75;;;1.35;;
27025;SDS011;14565;48.626;8.978;2024-01-06T14:26:58;2.72;;;1.05;;
27025;SDS011;14565;48.626;8.978;2024-01-06T14:29:24;4.22;;;2.20;;
27025;SDS011;14565;48.626;8.978;2024-01-06T14:31:50;4.20;;;2.35;;
27025;SDS011;14565;48.626;8.978;2024-01-06T14:34:16;2.95;;;1.38;;
27025;SDS011;14565;48.626;8.978;2024-01-06T14:36:41;1.25;;;0.95;;
27025;SDS011;14565;48.626;8.978;2024-01-06T14:39:13;2.45;;;1.92;;
27025;SDS011;14565;48.626;8.978;2024-01-06T14:41:39;1.58;;;1.35;;
27025;SDS011;14565;48.626;8.978;2024-01-06T14:44:06;10.50;;;6.63;;
27025;SDS011;14565;48.626;8.978;2024-01-06T14:46:31;1.60;;;1.20;;
27025;SDS011;14565;48.626;8.978;2024-01-06T14:48:59;1.80;;;1.53;;
27025;SDS011;14565;48.626;8.978;2024-01-06T14:51:24;2.33;;;1.45;;
27025;SDS011;14565;48.626;8.978;2024-01-06T14:53:50;3.75;;;2.00;;
27025;SDS011;14565;48.626;8.978;2024-01-06T14:56:15;1.77;;;1.38;;
27025;SDS011;14565;48.626;8.978;2024-01-06T14:58:41;2.75;;;1.70;;